sensor_id;sensor_type;location;lat;lon;timestamp;noise_LAeq;noise_LA_min;noise_LA_max;noise_LA01;noise_LA95
66747;Laerm;53658;50.742;10.864;2023-03-31T00:00:58;39.36;36.20;49.51;;
66747;Laerm;53658;50.742;10.864;2023-03-31T00:03:26;39.37;36.45;51.83;;
66747;Laerm;53658;50.742;10.864;2023-03-31T00:05:59;39.36;36.45;43.24;;
66747;Laerm;53658;50.742;10.864;2023-03-31T00:08:28;39.37;36.45;44.80;;
66747;Laerm;53658;50.742;10.864;2023-03-31T00:11:04;39.37;36.91;48.91;;
66747;Laerm;53658;50.742;10.864;2023-03-31T00:13:32;39.40;36.20;43.19;;
66747;Laerm;53658;50.742;10.864;2023-03-31T00:16:01;39.40;36.91;46.75;;
66747;Laerm;53658;50.742;10.864;2023-03-31T00:18:28;39.38;36.69;44.62;;
66747;Laerm;53658;50.742;10.864;2023-03-31T00:21:09;39.34;36.69;46.02;;
66747;Laerm;53658;50.742;10.864;2023-03-31T00:23:41;39.35;36.69;46.84;;
66747;Laerm;53658;50.742;10.864;2023-03-31T00:26:07;39.35;36.45;44.65;;
66747;Laerm;53658;50.742;10.864;2023-03-31T00:28:33;39.34;36.45;52.09;;
66747;Laerm;53658;50.742;10.864;2023-03-31T00:31:01;39.33;36.45;43.39;;
66747;Laerm;53658;50.742;10.864;2023-03-31T00:33:28;39.36;36.69;44.97;;
66747;Laerm;53658;50.742;10.864;2023-03-31T00:35:54;39.30;36.20;41.75;;
66747;Laerm;53658;50.742;10.864;2023-03-31T00:38:20;39.34;36.20;42.88;;
66747;Laerm;53658;50.742;10.864;2023-03-31T00:40:46;39.32;36.45;41.46;;
66747;Laerm;53658;50.742;10.864;2023-03-31T00:49:25;39.37;36.91;41.68;;
66747;Laerm;53658;50.742;10.864;2023-03-31T00:51:57;39.37;36.69;43.24;;
66747;Laerm;53658;50.742;10.864;2023-03-31T00:54:26;39.38;36.45;49.83;;
66747;Laerm;53658;50.742;10.864;2023-03-31T00:56:55;39.33;36.69;42.82;;
66747;Laerm;53658;50.742;10.864;2023-03-31T00:59:27;39.38;36.69;42.76;;
66747;Laerm;53658;50.742;10.864;2023-03-31T01:01:56;39.42;36.69;42.59;;
66747;Laerm;53658;50.742;10.864;2023-03-31T01:04:32;39.43;36.91;42.53;;
66747;Laerm;53658;50.742;10.864;2023-03-31T01:09:37;39.59;36.91;47.22;;
66747;Laerm;53658;50.742;10.864;2023-03-31T01:12:07;39.63;36.69;43.14;;
66747;Laerm;53658;50.742;10.864;2023-03-31T01:14:34;39.62;37.32;43.77;;
66747;Laerm;53658;50.742;10.864;2023-03-31T01:17:01;39.69;37.32;42.47;;
66747;Laerm;53658;50.742;10.864;2023-03-31T01:19:54;39.66;36.69;42.98;;
66747;Laerm;53658;50.742;10.864;2023-03-31T01:28:03;39.72;37.12;42.47;;
66747;Laerm;53658;50.742;10.864;2023-03-31T01:47:26;39.70;37.32;42.22;;
66747;Laerm;53658;50.742;10.864;2023-03-31T01:53:03;39.70;37.32;41.61;;
66747;Laerm;53658;50.742;10.864;2023-03-31T01:55:47;39.67;37.12;43.58;;
66747;Laerm;53658;50.742;10.864;2023-03-31T01:58:28;39.70;37.32;44.03;;
66747;Laerm;53658;50.742;10.864;2023-03-31T02:01:26;39.75;36.91;44.43;;
66747;Laerm;53658;50.742;10.864;2023-03-31T02:04:05;39.71;36.91;55.11;;
66747;Laerm;53658;50.742;10.864;2023-03-31T02:06:46;39.70;36.91;48.46;;
66747;Laerm;53658;50.742;10.864;2023-03-31T02:09:25;39.67;36.69;53.59;;
66747;Laerm;53658;50.742;10.864;2023-03-31T02:11:55;39.66;35.94;53.45;;
66747;Laerm;53658;50.742;10.864;2023-03-31T02:14:26;39.84;36.45;61.48;;
66747;Laerm;53658;50.742;10.864;2023-03-31T02:16:56;39.35;36.20;52.74;;
66747;Laerm;53658;50.742;10.864;2023-03-31T02:19:32;39.75;36.20;62.26;;
66747;Laerm;53658;50.742;10.864;2023-03-31T02:22:01;44.13;36.20;78.78;;
66747;Laerm;53658;50.742;10.864;2023-03-31T02:24:31;39.24;35.66;42.09;;
66747;Laerm;53658;50.742;10.864;2023-03-31T02:27:03;39.24;36.20;58.18;;
66747;Laerm;53658;50.742;10.864;2023-03-31T02:29:31;39.28;35.36;60.05;;
66747;Laerm;53658;50.742;10.864;2023-03-31T02:32:14;51.19;35.59;87.53;;
66747;Laerm;53658;50.742;10.864;2023-03-31T02:34:45;39.48;35.94;52.22;;
66747;Laerm;53658;50.742;10.864;2023-03-31T02:37:12;39.26;35.66;47.81;;
66747;Laerm;53658;50.742;10.864;2023-03-31T02:39:40;39.23;35.86;47.18;;
66747;Laerm;53658;50.742;10.864;2023-03-31T02:42:10;39.33;35.66;42.82;;
66747;Laerm;53658;50.742;10.864;2023-03-31T02:44:38;39.34;36.20;42.88;;
66747;Laerm;53658;50.742;10.864;2023-03-31T02:47:07;39.27;35.66;45.04;;
66747;Laerm;53658;50.742;10.864;2023-03-31T02:49:40;43.31;34.31;77.40;;
66747;Laerm;53658;50.742;10.864;2023-03-31T03:00:33;38.97;35.66;44.47;;
66747;Laerm;53658;50.742;10.864;2023-03-31T03:03:42;39.13;35.04;52.53;;
66747;Laerm;53658;50.742;10.864;2023-03-31T03:17:27;38.75;34.69;42.59;;
66747;Laerm;53658;50.742;10.864;2023-03-31T03:19:59;38.72;34.69;43.49;;
66747;Laerm;53658;50.742;10.864;2023-03-31T03:22:25;38.77;34.31;42.03;;
66747;Laerm;53658;50.742;10.864;2023-03-31T03:24:52;38.85;34.69;41.89;;
66747;Laerm;53658;50.742;10.864;2023-03-31T03:27:19;38.94;34.69;45.20;;
66747;Laerm;53658;50.742;10.864;2023-03-31T03:29:47;38.70;34.31;41.75;;
66747;Laerm;53658;50.742;10.864;2023-03-31T03:32:13;38.83;34.31;43.68;;
66747;Laerm;53658;50.742;10.864;2023-03-31T03:34:39;38.86;34.31;41.53;;
66747;Laerm;53658;50.742;10.864;2023-03-31T03:37:05;39.13;34.69;60.48;;
66747;Laerm;53658;50.742;10.864;2023-03-31T03:39:31;39.22;34.69;58.10;;
66747;Laerm;53658;50.742;10.864;2023-03-31T03:41:57;39.03;34.69;42.71;;
66747;Laerm;53658;50.742;10.864;2023-03-31T03:44:23;38.90;34.69;41.61;;
66747;Laerm;53658;50.742;10.864;2023-03-31T03:46:48;38.94;33.90;41.46;;
66747;Laerm;53658;50.742;10.864;2023-03-31T03:49:14;38.85;34.69;42.35;;
66747;Laerm;53658;50.742;10.864;2023-03-31T03:51:40;38.59;33.90;41.61;;
66747;Laerm;53658;50.742;10.864;2023-03-31T03:54:06;38.12;32.93;45.66;;
66747;Laerm;53658;50.742;10.864;2023-03-31T03:56:32;38.36;32.35;51.37;;
66747;Laerm;53658;50.742;10.864;2023-03-31T03:58:58;38.40;32.93;55.12;;
66747;Laerm;53658;50.742;10.864;2023-03-31T04:01:24;39.38;33.55;60.46;;
66747;Laerm;53658;50.742;10.864;2023-03-31T04:03:50;38.26;33.90;41.53;;
66747;Laerm;53658;50.742;10.864;2023-03-31T04:06:16;38.12;32.93;41.22;;
66747;Laerm;53658;50.742;10.864;2023-03-31T04:08:42;38.08;33.44;52.08;;
66747;Laerm;53658;50.742;10.864;2023-03-31T04:11:18;37.97;32.35;42.59;;
66747;Laerm;53658;50.742;10.864;2023-03-31T04:13:45;38.06;32.93;41.61;;
66747;Laerm;53658;50.742;10.864;2023-03-31T04:16:11;47.56;32.93;83.24;;
66747;Laerm;53658;50.742;10.864;2023-03-31T04:18:38;37.98;33.44;41.06;;
66747;Laerm;53658;50.742;10.864;2023-03-31T04:21:13;38.12;33.44;41.82;;
66747;Laerm;53658;50.742;10.864;2023-03-31T04:23:48;38.04;32.35;41.22;;
66747;Laerm;53658;50.742;10.864;2023-03-31T04:26:17;38.01;33.44;41.30;;
66747;Laerm;53658;50.742;10.864;2023-03-31T04:28:44;39.20;33.44;53.06;;
66747;Laerm;53658;50.742;10.864;2023-03-31T04:31:15;38.49;32.35;42.29;;
66747;Laerm;53658;50.742;10.864;2023-03-31T04:33:51;38.75;34.31;41.53;;
66747;Laerm;53658;50.742;10.864;2023-03-31T04:36:17;39.04;34.69;58.76;;
66747;Laerm;53658;50.742;10.864;2023-03-31T04:38:48;38.77;35.04;41.46;;
66747;Laerm;53658;50.742;10.864;2023-03-31T04:41:20;38.64;32.93;41.38;;
66747;Laerm;53658;50.742;10.864;2023-03-31T04:43:47;38.94;33.90;63.72;;
66747;Laerm;53658;50.742;10.864;2023-03-31T04:46:13;38.62;33.44;41.06;;
66747;Laerm;53658;50.742;10.864;2023-03-31T04:48:39;38.64;33.90;41.68;;
66747;Laerm;53658;50.742;10.864;2023-03-31T04:51:05;38.72;33.44;42.22;;
66747;Laerm;53658;50.742;10.864;2023-03-31T04:53:32;38.65;34.31;42.71;;
66747;Laerm;53658;50.742;10.864;2023-03-31T04:55:58;38.67;34.31;41.89;;
66747;Laerm;53658;50.742;10.864;2023-03-31T04:58:24;38.94;35.04;41.75;;
66747;Laerm;53658;50.742;10.864;2023-03-31T05:00:51;38.96;34.69;44.87;;
66747;Laerm;53658;50.742;10.864;2023-03-31T05:03:17;38.97;34.31;41.61;;
66747;Laerm;53658;50.742;10.864;2023-03-31T05:05:44;38.98;33.90;42.41;;
66747;Laerm;53658;50.742;10.864;2023-03-31T05:08:10;39.01;34.31;42.59;;
66747;Laerm;53658;50.742;10.864;2023-03-31T05:10:36;39.01;34.31;41.68;;
66747;Laerm;53658;50.742;10.864;2023-03-31T05:13:02;38.93;34.31;48.70;;
66747;Laerm;53658;50.742;10.864;2023-03-31T05:15:28;39.02;34.31;43.19;;
66747;Laerm;53658;50.742;10.864;2023-03-31T05:17:53;38.87;34.31;43.14;;
66747;Laerm;53658;50.742;10.864;2023-03-31T05:20:20;38.81;33.90;43.44;;
66747;Laerm;53658;50.742;10.864;2023-03-31T05:22:46;38.91;34.69;44.97;;
66747;Laerm;53658;50.742;10.864;2023-03-31T05:25:13;38.97;34.31;46.80;;
66747;Laerm;53658;50.742;10.864;2023-03-31T05:27:46;39.11;35.36;54.20;;
66747;Laerm;53658;50.742;10.864;2023-03-31T05:30:13;39.04;35.04;48.02;;
66747;Laerm;53658;50.742;10.864;2023-03-31T05:32:43;42.07;34.31;75.30;;
66747;Laerm;53658;50.742;10.864;2023-03-31T05:35:10;38.92;34.31;47.55;;
66747;Laerm;53658;50.742;10.864;2023-03-31T05:37:36;38.78;32.93;41.38;;
66747;Laerm;53658;50.742;10.864;2023-03-31T05:40:02;38.66;34.31;45.54;;
66747;Laerm;53658;50.742;10.864;2023-03-31T05:42:34;38.78;33.90;42.22;;
66747;Laerm;53658;50.742;10.864;2023-03-31T05:45:00;40.43;34.31;61.87;;
66747;Laerm;53658;50.742;10.864;2023-03-31T05:47:26;39.01;33.44;42.29;;
66747;Laerm;53658;50.742;10.864;2023-03-31T05:49:52;38.84;34.31;41.61;;
66747;Laerm;53658;50.742;10.864;2023-03-31T05:52:18;38.87;35.04;43.14;;
66747;Laerm;53658;50.742;10.864;2023-03-31T05:54:44;38.72;33.90;44.97;;
66747;Laerm;53658;50.742;10.864;2023-03-31T05:57:10;38.68;33.44;46.02;;
66747;Laerm;53658;50.742;10.864;2023-03-31T05:59:36;38.63;32.93;44.62;;
66747;Laerm;53658;50.742;10.864;2023-03-31T06:02:03;39.98;34.69;58.21;;
66747;Laerm;53658;50.742;10.864;2023-03-31T06:04:30;38.85;33.90;44.51;;
66747;Laerm;53658;50.742;10.864;2023-03-31T06:07:15;38.68;33.90;42.76;;
66747;Laerm;53658;50.742;10.864;2023-03-31T06:09:42;39.18;32.93;63.40;;
66747;Laerm;53658;50.742;10.864;2023-03-31T06:12:08;38.62;32.93;42.53;;
66747;Laerm;53658;50.742;10.864;2023-03-31T06:14:33;38.65;33.90;41.61;;
66747;Laerm;53658;50.742;10.864;2023-03-31T06:16:59;38.62;33.90;44.23;;
66747;Laerm;53658;50.742;10.864;2023-03-31T06:19:25;38.58;32.93;41.75;;
66747;Laerm;53658;50.742;10.864;2023-03-31T06:21:51;38.62;33.90;41.38;;
66747;Laerm;53658;50.742;10.864;2023-03-31T06:24:17;38.60;34.31;43.68;;
66747;Laerm;53658;50.742;10.864;2023-03-31T06:26:43;38.39;33.55;40.89;;
66747;Laerm;53658;50.742;10.864;2023-03-31T06:29:08;37.69;32.93;42.03;;
66747;Laerm;53658;50.742;10.864;2023-03-31T06:31:34;37.78;32.93;41.89;;
66747;Laerm;53658;50.742;10.864;2023-03-31T06:34:00;38.06;33.90;41.61;;
66747;Laerm;53658;50.742;10.864;2023-03-31T06:36:26;38.46;33.90;42.09;;
66747;Laerm;53658;50.742;10.864;2023-03-31T06:38:52;38.97;34.69;42.35;;
66747;Laerm;53658;50.742;10.864;2023-03-31T06:41:19;39.32;35.94;42.76;;
66747;Laerm;53658;50.742;10.864;2023-03-31T06:43:46;39.66;36.20;42.03;;
66747;Laerm;53658;50.742;10.864;2023-03-31T06:46:13;39.84;37.32;42.65;;
66747;Laerm;53658;50.742;10.864;2023-03-31T06:48:39;39.77;37.17;42.03;;
66747;Laerm;53658;50.742;10.864;2023-03-31T06:51:07;39.83;37.52;44.12;;
66747;Laerm;53658;50.742;10.864;2023-03-31T06:53:34;39.83;37.12;44.35;;
66747;Laerm;53658;50.742;10.864;2023-03-31T06:56:01;39.63;36.20;46.57;;
66747;Laerm;53658;50.742;10.864;2023-03-31T06:58:27;39.60;37.32;42.71;;
66747;Laerm;53658;50.742;10.864;2023-03-31T07:00:53;39.69;37.32;43.54;;
66747;Laerm;53658;50.742;10.864;2023-03-31T07:03:19;39.71;36.91;43.39;;
66747;Laerm;53658;50.742;10.864;2023-03-31T07:05:51;39.76;36.69;42.35;;
66747;Laerm;53658;50.742;10.864;2023-03-31T07:08:18;39.74;37.32;42.22;;
66747;Laerm;53658;50.742;10.864;2023-03-31T07:10:46;39.73;37.32;41.61;;
66747;Laerm;53658;50.742;10.864;2023-03-31T07:13:17;39.74;37.32;41.82;;
66747;Laerm;53658;50.742;10.864;2023-03-31T07:15:46;39.83;37.12;42.03;;
66747;Laerm;53658;50.742;10.864;2023-03-31T07:18:12;39.79;37.32;43.44;;
66747;Laerm;53658;50.742;10.864;2023-03-31T07:20:41;39.84;37.32;44.51;;
66747;Laerm;53658;50.742;10.864;2023-03-31T07:23:07;39.88;36.91;51.33;;
66747;Laerm;53658;50.742;10.864;2023-03-31T07:25:34;40.41;37.32;46.82;;
66747;Laerm;53658;50.742;10.864;2023-03-31T07:28:00;40.55;36.91;49.94;;
66747;Laerm;53658;50.742;10.864;2023-03-31T07:30:27;40.37;36.45;56.49;;
66747;Laerm;53658;50.742;10.864;2023-03-31T07:32:53;39.70;36.45;53.14;;
66747;Laerm;53658;50.742;10.864;2023-03-31T07:35:20;39.64;36.69;47.38;;
66747;Laerm;53658;50.742;10.864;2023-03-31T07:37:49;39.74;36.45;48.45;;
66747;Laerm;53658;50.742;10.864;2023-03-31T07:40:18;39.54;36.45;44.19;;
66747;Laerm;53658;50.742;10.864;2023-03-31T07:42:44;39.56;36.20;50.56;;
66747;Laerm;53658;50.742;10.864;2023-03-31T07:45:12;39.56;36.20;46.20;;
66747;Laerm;53658;50.742;10.864;2023-03-31T07:47:38;39.72;36.20;56.28;;
66747;Laerm;53658;50.742;10.864;2023-03-31T07:50:05;39.62;35.31;55.23;;
66747;Laerm;53658;50.742;10.864;2023-03-31T07:52:31;39.42;35.66;49.40;;
66747;Laerm;53658;50.742;10.864;2023-03-31T07:54:57;39.30;35.66;43.04;;
66747;Laerm;53658;50.742;10.864;2023-03-31T07:57:23;43.79;35.94;78.03;;
66747;Laerm;53658;50.742;10.864;2023-03-31T07:59:49;39.30;36.20;43.94;;
66747;Laerm;53658;50.742;10.864;2023-03-31T08:02:16;39.28;35.66;49.66;;
66747;Laerm;53658;50.742;10.864;2023-03-31T08:04:43;39.16;35.66;47.67;;
66747;Laerm;53658;50.742;10.864;2023-03-31T08:07:11;39.15;35.94;45.30;;
66747;Laerm;53658;50.742;10.864;2023-03-31T08:09:38;39.23;36.20;42.76;;
66747;Laerm;53658;50.742;10.864;2023-03-31T08:12:05;39.26;35.94;42.76;;
66747;Laerm;53658;50.742;10.864;2023-03-31T08:14:31;39.38;36.20;58.96;;
66747;Laerm;53658;50.742;10.864;2023-03-31T08:16:57;39.14;35.66;44.07;;
66747;Laerm;53658;50.742;10.864;2023-03-31T08:19:25;39.13;35.66;42.76;;
66747;Laerm;53658;50.742;10.864;2023-03-31T08:21:52;39.10;35.66;44.73;;
66747;Laerm;53658;50.742;10.864;2023-03-31T08:24:19;39.85;33.44;59.56;;
66747;Laerm;53658;50.742;10.864;2023-03-31T08:26:45;39.24;34.69;45.48;;
66747;Laerm;53658;50.742;10.864;2023-03-31T08:29:11;39.31;35.66;42.53;;
66747;Laerm;53658;50.742;10.864;2023-03-31T08:31:37;39.32;36.20;43.94;;
66747;Laerm;53658;50.742;10.864;2023-03-31T08:34:03;39.57;35.94;52.05;;
66747;Laerm;53658;50.742;10.864;2023-03-31T08:36:30;39.43;35.66;45.17;;
66747;Laerm;53658;50.742;10.864;2023-03-31T08:38:56;39.43;35.66;43.63;;
66747;Laerm;53658;50.742;10.864;2023-03-31T08:41:57;39.44;35.36;43.34;;
66747;Laerm;53658;50.742;10.864;2023-03-31T08:44:44;50.68;34.31;87.50;;
66747;Laerm;53658;50.742;10.864;2023-03-31T08:47:18;40.19;35.04;55.38;;
66747;Laerm;53658;50.742;10.864;2023-03-31T08:49:57;39.36;35.04;53.35;;
66747;Laerm;53658;50.742;10.864;2023-03-31T09:17:56;38.18;32.93;41.06;;
66747;Laerm;53658;50.742;10.864;2023-03-31T09:20:31;38.33;32.93;57.65;;
66747;Laerm;53658;50.742;10.864;2023-03-31T09:23:11;37.93;32.35;40.89;;
66747;Laerm;53658;50.742;10.864;2023-03-31T09:25:40;37.92;32.93;44.47;;
66747;Laerm;53658;50.742;10.864;2023-03-31T09:28:18;37.87;33.44;41.61;;
66747;Laerm;53658;50.742;10.864;2023-03-31T09:30:47;37.94;32.93;46.71;;
66747;Laerm;53658;50.742;10.864;2023-03-31T09:33:22;37.99;33.44;40.89;;
66747;Laerm;53658;50.742;10.864;2023-03-31T09:35:51;37.93;32.58;48.05;;
66747;Laerm;53658;50.742;10.864;2023-03-31T09:38:17;37.88;33.44;54.82;;
66747;Laerm;53658;50.742;10.864;2023-03-31T09:40:44;37.84;32.93;42.03;;
66747;Laerm;53658;50.742;10.864;2023-03-31T09:43:30;37.72;32.35;47.00;;
66747;Laerm;53658;50.742;10.864;2023-03-31T09:46:01;37.74;32.35;47.00;;
66747;Laerm;53658;50.742;10.864;2023-03-31T09:48:33;37.93;31.68;60.06;;
66747;Laerm;53658;50.742;10.864;2023-03-31T09:51:06;37.81;32.93;48.95;;
66747;Laerm;53658;50.742;10.864;2023-03-31T09:56:04;39.07;33.90;59.79;;
66747;Laerm;53658;50.742;10.864;2023-03-31T09:58:51;38.24;33.44;56.21;;
66747;Laerm;53658;50.742;10.864;2023-03-31T10:01:17;38.53;33.44;56.69;;
66747;Laerm;53658;50.742;10.864;2023-03-31T10:03:50;38.94;32.35;64.80;;
66747;Laerm;53658;50.742;10.864;2023-03-31T10:06:17;39.10;32.35;49.63;;
66747;Laerm;53658;50.742;10.864;2023-03-31T10:08:57;38.17;30.89;54.89;;
66747;Laerm;53658;50.742;10.864;2023-03-31T10:11:25;38.25;32.93;51.69;;
66747;Laerm;53658;50.742;10.864;2023-03-31T10:14:02;38.21;32.35;44.62;;
66747;Laerm;53658;50.742;10.864;2023-03-31T10:16:32;38.65;34.31;44.19;;
66747;Laerm;53658;50.742;10.864;2023-03-31T10:19:21;38.66;33.44;59.98;;
66747;Laerm;53658;50.742;10.864;2023-03-31T10:22:37;40.09;34.31;61.64;;
66747;Laerm;53658;50.742;10.864;2023-03-31T10:25:15;39.44;35.36;57.58;;
66747;Laerm;53658;50.742;10.864;2023-03-31T10:27:46;39.26;35.04;57.59;;
66747;Laerm;53658;50.742;10.864;2023-03-31T10:30:20;39.65;33.90;45.30;;
66747;Laerm;53658;50.742;10.864;2023-03-31T10:32:46;39.58;34.31;54.09;;
66747;Laerm;53658;50.742;10.864;2023-03-31T10:35:38;39.08;34.31;60.92;;
66747;Laerm;53658;50.742;10.864;2023-03-31T10:38:12;41.73;33.90;75.08;;
66747;Laerm;53658;50.742;10.864;2023-03-31T10:40:40;39.08;33.90;65.25;;
66747;Laerm;53658;50.742;10.864;2023-03-31T10:43:16;38.63;33.90;48.05;;
66747;Laerm;53658;50.742;10.864;2023-03-31T10:45:59;38.51;33.90;41.38;;
66747;Laerm;53658;50.742;10.864;2023-03-31T10:48:28;38.61;33.44;41.30;;
66747;Laerm;53658;50.742;10.864;2023-03-31T10:53:47;46.09;29.92;81.41;;
66747;Laerm;53658;50.742;10.864;2023-03-31T10:59:07;38.59;32.93;41.75;;
66747;Laerm;53658;50.742;10.864;2023-03-31T11:04:55;38.97;33.44;42.41;;
66747;Laerm;53658;50.742;10.864;2023-03-31T11:13:20;38.94;33.90;43.19;;
66747;Laerm;53658;50.742;10.864;2023-03-31T11:18:44;38.90;34.69;42.98;;
66747;Laerm;53658;50.742;10.864;2023-03-31T11:30:03;39.23;34.31;42.82;;
66747;Laerm;53658;50.742;10.864;2023-03-31T11:35:15;39.06;34.69;42.09;;
66747;Laerm;53658;50.742;10.864;2023-03-31T11:38:00;39.16;34.31;59.43;;
66747;Laerm;53658;50.742;10.864;2023-03-31T11:46:07;39.46;35.94;46.18;;
66747;Laerm;53658;50.742;10.864;2023-03-31T11:48:57;39.89;36.69;45.72;;
66747;Laerm;53658;50.742;10.864;2023-03-31T11:54:01;40.02;37.52;48.07;;
66747;Laerm;53658;50.742;10.864;2023-03-31T11:56:37;40.04;37.70;45.57;;
66747;Laerm;53658;50.742;10.864;2023-03-31T11:59:06;40.11;37.52;50.46;;
66747;Laerm;53658;50.742;10.864;2023-03-31T12:01:53;40.04;37.52;45.63;;
66747;Laerm;53658;50.742;10.864;2023-03-31T12:04:44;39.94;37.17;44.19;;
66747;Laerm;53658;50.742;10.864;2023-03-31T12:10:04;39.77;37.32;43.81;;
66747;Laerm;53658;50.742;10.864;2023-03-31T12:15:38;39.66;36.20;48.32;;
66747;Laerm;53658;50.742;10.864;2023-03-31T12:18:15;41.63;36.91;58.21;;
66747;Laerm;53658;50.742;10.864;2023-03-31T12:20:56;39.64;37.12;45.86;;
66747;Laerm;53658;50.742;10.864;2023-03-31T12:23:28;40.08;36.69;52.36;;
66747;Laerm;53658;50.742;10.864;2023-03-31T12:28:48;39.69;36.91;48.94;;
66747;Laerm;53658;50.742;10.864;2023-03-31T12:31:22;40.76;37.12;54.92;;
66747;Laerm;53658;50.742;10.864;2023-03-31T12:34:03;39.82;37.12;47.20;;
66747;Laerm;53658;50.742;10.864;2023-03-31T12:36:39;39.52;37.32;41.46;;
66747;Laerm;53658;50.742;10.864;2023-03-31T12:45:30;40.28;37.52;53.49;;
66747;Laerm;53658;50.742;10.864;2023-03-31T12:51:14;40.42;36.20;53.68;;
66747;Laerm;53658;50.742;10.864;2023-03-31T12:53:50;39.80;36.20;50.11;;
66747;Laerm;53658;50.742;10.864;2023-03-31T12:56:21;39.76;36.91;45.14;;
66747;Laerm;53658;50.742;10.864;2023-03-31T12:58:47;39.96;37.12;49.58;;
66747;Laerm;53658;50.742;10.864;2023-03-31T13:01:19;39.76;37.32;46.28;;
66747;Laerm;53658;50.742;10.864;2023-03-31T13:04:08;39.72;37.52;42.53;;
66747;Laerm;53658;50.742;10.864;2023-03-31T13:11:39;39.88;36.91;46.87;;
66747;Laerm;53658;50.742;10.864;2023-03-31T13:16:42;39.61;36.45;49.34;;
66747;Laerm;53658;50.742;10.864;2023-03-31T13:19:27;39.60;36.45;44.07;;
66747;Laerm;53658;50.742;10.864;2023-03-31T13:21:57;39.99;36.91;50.61;;
66747;Laerm;53658;50.742;10.864;2023-03-31T13:24:25;39.57;36.91;49.65;;
66747;Laerm;53658;50.742;10.864;2023-03-31T13:26:54;39.49;36.91;47.77;;
66747;Laerm;53658;50.742;10.864;2023-03-31T13:29:24;39.50;36.69;52.17;;
66747;Laerm;53658;50.742;10.864;2023-03-31T13:35:02;39.56;36.98;46.25;;
66747;Laerm;53658;50.742;10.864;2023-03-31T13:45:58;46.66;33.90;73.95;;
66747;Laerm;53658;50.742;10.864;2023-03-31T13:53:59;39.75;36.45;45.63;;
66747;Laerm;53658;50.742;10.864;2023-03-31T14:08:09;39.82;37.32;49.90;;
66747;Laerm;53658;50.742;10.864;2023-03-31T14:10:38;39.72;36.69;50.54;;
66747;Laerm;53658;50.742;10.864;2023-03-31T14:13:17;39.43;36.69;42.47;;
66747;Laerm;53658;50.742;10.864;2023-03-31T14:15:54;39.47;37.12;43.04;;
66747;Laerm;53658;50.742;10.864;2023-03-31T14:18:28;39.54;36.69;44.87;;
66747;Laerm;53658;50.742;10.864;2023-03-31T14:23:54;39.78;37.52;45.11;;
66747;Laerm;53658;50.742;10.864;2023-03-31T14:29:26;39.69;37.70;43.49;;
66747;Laerm;53658;50.742;10.864;2023-03-31T14:32:11;39.79;37.52;46.86;;
66747;Laerm;53658;50.742;10.864;2023-03-31T14:35:19;39.48;36.91;41.75;;
66747;Laerm;53658;50.742;10.864;2023-03-31T14:37:38;39.44;36.69;41.53;;
66747;Laerm;53658;50.742;10.864;2023-03-31T14:40:05;39.67;37.12;41.61;;
66747;Laerm;53658;50.742;10.864;2023-03-31T14:42:39;39.99;37.52;44.11;;
66747;Laerm;53658;50.742;10.864;2023-03-31T14:45:22;40.12;37.52;46.34;;
66747;Laerm;53658;50.742;10.864;2023-03-31T14:47:58;40.29;37.52;50.51;;
66747;Laerm;53658;50.742;10.864;2023-03-31T14:50:33;39.85;37.32;43.64;;
66747;Laerm;53658;50.742;10.864;2023-03-31T14:53:00;39.77;37.32;42.16;;
66747;Laerm;53658;50.742;10.864;2023-03-31T14:55:30;39.72;37.12;43.81;;
66747;Laerm;53658;50.742;10.864;2023-03-31T14:58:01;39.58;37.12;42.09;;
66747;Laerm;53658;50.742;10.864;2023-03-31T15:00:31;39.52;37.12;42.47;;
66747;Laerm;53658;50.742;10.864;2023-03-31T15:03:00;40.08;36.45;52.16;;
66747;Laerm;53658;50.742;10.864;2023-03-31T15:05:31;39.64;36.91;47.16;;
66747;Laerm;53658;50.742;10.864;2023-03-31T15:08:02;39.57;36.91;43.94;;
66747;Laerm;53658;50.742;10.864;2023-03-31T15:10:35;39.95;36.91;49.57;;
66747;Laerm;53658;50.742;10.864;2023-03-31T15:13:11;39.68;36.91;46.84;;
66747;Laerm;53658;50.742;10.864;2023-03-31T15:15:41;39.65;36.69;48.20;;
66747;Laerm;53658;50.742;10.864;2023-03-31T15:18:11;39.83;36.69;52.84;;
66747;Laerm;53658;50.742;10.864;2023-03-31T15:20:40;39.83;37.12;48.60;;
66747;Laerm;53658;50.742;10.864;2023-03-31T15:23:24;39.77;36.77;48.21;;
66747;Laerm;53658;50.742;10.864;2023-03-31T15:26:05;39.50;36.91;45.07;;
66747;Laerm;53658;50.742;10.864;2023-03-31T15:28:45;39.45;36.45;42.76;;
66747;Laerm;53658;50.742;10.864;2023-03-31T15:31:15;39.80;37.32;49.00;;
66747;Laerm;53658;50.742;10.864;2023-03-31T15:33:42;39.51;37.52;41.61;;
66747;Laerm;53658;50.742;10.864;2023-03-31T15:36:10;39.46;37.12;41.30;;
66747;Laerm;53658;50.742;10.864;2023-03-31T15:38:37;39.61;37.12;45.45;;
66747;Laerm;53658;50.742;10.864;2023-03-31T15:41:11;39.47;36.69;41.75;;
66747;Laerm;53658;50.742;10.864;2023-03-31T15:43:48;39.55;37.12;42.82;;
66747;Laerm;53658;50.742;10.864;2023-03-31T15:46:24;39.79;37.12;47.46;;
66747;Laerm;53658;50.742;10.864;2023-03-31T15:48:53;39.85;37.12;45.54;;
66747;Laerm;53658;50.742;10.864;2023-03-31T15:51:36;39.43;36.69;41.53;;
66747;Laerm;53658;50.742;10.864;2023-03-31T15:54:02;39.44;37.12;43.86;;
66747;Laerm;53658;50.742;10.864;2023-03-31T15:56:36;39.42;36.91;41.38;;
66747;Laerm;53658;50.742;10.864;2023-03-31T15:59:23;39.39;36.91;41.53;;
66747;Laerm;53658;50.742;10.864;2023-03-31T16:01:50;39.39;37.12;41.22;;
66747;Laerm;53658;50.742;10.864;2023-03-31T16:04:17;39.41;37.12;42.47;;
66747;Laerm;53658;50.742;10.864;2023-03-31T16:07:33;39.46;37.12;42.16;;
66747;Laerm;53658;50.742;10.864;2023-03-31T16:09:51;39.47;36.91;43.04;;
66747;Laerm;53658;50.742;10.864;2023-03-31T16:12:20;39.50;37.12;44.73;;
66747;Laerm;53658;50.742;10.864;2023-03-31T16:14:58;39.39;36.91;41.38;;
66747;Laerm;53658;50.742;10.864;2023-03-31T16:17:37;39.36;36.91;41.38;;
66747;Laerm;53658;50.742;10.864;2023-03-31T16:22:52;39.37;36.69;41.82;;
66747;Laerm;53658;50.742;10.864;2023-03-31T16:25:22;39.42;36.69;43.77;;
66747;Laerm;53658;50.742;10.864;2023-03-31T16:27:57;39.37;36.91;41.38;;
66747;Laerm;53658;50.742;10.864;2023-03-31T16:30:37;39.45;36.45;42.41;;
66747;Laerm;53658;50.742;10.864;2023-03-31T16:33:12;39.62;36.69;41.53;;
66747;Laerm;53658;50.742;10.864;2023-03-31T16:35:42;39.52;37.12;41.53;;
66747;Laerm;53658;50.742;10.864;2023-03-31T16:38:11;39.46;36.91;41.68;;
66747;Laerm;53658;50.742;10.864;2023-03-31T16:40:40;39.47;36.91;41.46;;
66747;Laerm;53658;50.742;10.864;2023-03-31T16:43:11;39.47;36.91;41.96;;
66747;Laerm;53658;50.742;10.864;2023-03-31T16:45:38;39.51;36.69;42.65;;
66747;Laerm;53658;50.742;10.864;2023-03-31T16:48:04;39.48;36.91;41.68;;
66747;Laerm;53658;50.742;10.864;2023-03-31T16:50:31;39.53;37.12;41.53;;
66747;Laerm;53658;50.742;10.864;2023-03-31T16:52:57;39.50;36.91;41.22;;
66747;Laerm;53658;50.742;10.864;2023-03-31T16:55:23;39.68;36.91;41.53;;